Rosecrans Memorial Airport
KSTJ : now visible

Airfield :











YOU CAN JOIN US ON...

 
LOGIN :

Register | Disclaimer

   EN    FR    IT 

 









Legend :    VFR   Marginal VFR   IFR   Intensive IFR   Very Intensive IFR
Visi :
Ceiling :
>= 8 km
>= 3000ft
5 to 8 km
1000 to 3000 ft
1500m to 5 km
500 to 1000 ft
800 to 1500m
200 to 500 ft
< 800m
< 200 ft
Symbols :   Thunderstorms  Fog  Heavy snow  Heavy precipitations  Wind > 20 kt






- Airport Elevation : 826 ft


KSTJ - Rosecrans Memorial

CURRENT METAR :
  • 120553Z AUTO 15009KT 10SM CLR 02/M03 A3018 RMK AO2 SLP225 T00221033 10033 20006 400671078 57023

EXPIRED METARs :
  • 120453Z AUTO 17007KT 10SM CLR 01/M04 A3020 RMK AO2 SLP234 T00111044
  • 120353Z AUTO 17007KT 10SM CLR 02/M04 A3022 RMK AO2 SLP241 T00171044

TAF KSTJ
Valid from the 12 at 06:00 until the 13 at 06:00 UTC


120520Z 1206/1306 19012KT P6SM BKN200 WS020/21050KT
FM120900 19015G25KT P6SM BKN150 WS020/21050KT
FM121500 21017G28KT P6SM OVC050
FM122000 20008KT P6SM BKN250
FM130000 VRB03KT P6SM BKN250



MET'MAP, your aeronautical weather chart ! - Copyright ORBIFLY December 2007 - Disclaimer

ORBIFLY MET'MAP TEAM :

Programming & Development : Alexandra Zaïnal
Concept & original design : Baudouin d'Aumeries
Assistance for programming : Marc-Olivier Méhu
Technical & hardware support : Manuel Goepfert

Contact : metmap@orbifly.com




SOURCES & CREDITS :

   NOAA       Earth
Advisory